sensor_id;sensor_type;location;lat;lon;timestamp;temperature;humidity
14775;DHT22;7479;47.042;15.160;2023-09-08T05:45:22;13.70;99.90
14775;DHT22;7479;47.042;15.160;2023-09-08T06:03:00;14.40;99.90
14775;DHT22;7479;47.042;15.160;2023-09-08T06:17:54;15.00;99.90
14775;DHT22;7479;47.042;15.160;2023-09-08T06:32:14;15.80;99.90
14775;DHT22;7479;47.042;15.160;2023-09-08T06:37:10;16.00;99.90
14775;DHT22;7479;47.042;15.160;2023-09-08T06:52:05;16.50;99.90
14775;DHT22;7479;47.042;15.160;2023-09-08T06:56:59;16.80;99.90
14775;DHT22;7479;47.042;15.160;2023-09-08T07:12:10;17.40;99.90
14775;DHT22;7479;47.042;15.160;2023-09-08T07:26:29;17.80;99.90
14775;DHT22;7479;47.042;15.160;2023-09-08T07:41:10;18.50;99.90
14775;DHT22;7479;47.042;15.160;2023-09-08T08:10:59;19.80;99.90
14775;DHT22;7479;47.042;15.160;2023-09-08T08:24:56;20.50;99.90
14775;DHT22;7479;47.042;15.160;2023-09-08T08:29:49;20.60;99.90
14775;DHT22;7479;47.042;15.160;2023-09-08T08:43:47;21.40;99.90
14775;DHT22;7479;47.042;15.160;2023-09-08T08:48:42;21.60;99.90
14775;DHT22;7479;47.042;15.160;2023-09-08T08:53:38;21.90;99.90
14775;DHT22;7479;47.042;15.160;2023-09-08T09:07:33;22.70;99.90
14775;DHT22;7479;47.042;15.160;2023-09-08T09:12:26;22.80;99.90
14775;DHT22;7479;47.042;15.160;2023-09-08T09:17:20;23.00;99.90
14775;DHT22;7479;47.042;15.160;2023-09-08T09:22:13;23.20;99.90
14775;DHT22;7479;47.042;15.160;2023-09-08T09:27:08;23.60;99.90
14775;DHT22;7479;47.042;15.160;2023-09-08T09:32:04;23.90;99.90
14775;DHT22;7479;47.042;15.160;2023-09-08T09:36:58;24.20;99.90
14775;DHT22;7479;47.042;15.160;2023-09-08T09:41:53;24.50;99.90
14775;DHT22;7479;47.042;15.160;2023-09-08T09:46:52;24.80;99.90
14775;DHT22;7479;47.042;15.160;2023-09-08T09:51:47;25.10;99.90
14775;DHT22;7479;47.042;15.160;2023-09-08T09:56:41;25.30;99.90
14775;DHT22;7479;47.042;15.160;2023-09-08T10:01:40;25.60;98.90
14775;DHT22;7479;47.042;15.160;2023-09-08T10:06:38;25.90;98.30
14775;DHT22;7479;47.042;15.160;2023-09-08T10:11:35;26.30;96.40
14775;DHT22;7479;47.042;15.160;2023-09-08T10:16:34;26.50;94.20
14775;DHT22;7479;47.042;15.160;2023-09-08T10:21:29;26.80;94.60
14775;DHT22;7479;47.042;15.160;2023-09-08T10:26:27;27.10;93.70
14775;DHT22;7479;47.042;15.160;2023-09-08T10:31:23;27.40;93.00
14775;DHT22;7479;47.042;15.160;2023-09-08T10:36:18;27.50;92.50
14775;DHT22;7479;47.042;15.160;2023-09-08T10:41:29;27.60;92.40
14775;DHT22;7479;47.042;15.160;2023-09-08T10:46:27;27.70;92.00
14775;DHT22;7479;47.042;15.160;2023-09-08T10:51:21;27.90;91.80
14775;DHT22;7479;47.042;15.160;2023-09-08T10:56:15;28.20;91.30
14775;DHT22;7479;47.042;15.160;2023-09-08T11:01:16;28.50;90.30
14775;DHT22;7479;47.042;15.160;2023-09-08T11:06:11;28.50;90.60
14775;DHT22;7479;47.042;15.160;2023-09-08T11:11:04;28.90;85.40
14775;DHT22;7479;47.042;15.160;2023-09-08T11:15:59;28.70;88.00
14775;DHT22;7479;47.042;15.160;2023-09-08T11:20:56;29.00;84.70
14775;DHT22;7479;47.042;15.160;2023-09-08T11:25:50;29.20;85.40
14775;DHT22;7479;47.042;15.160;2023-09-08T11:30:47;29.70;82.90
14775;DHT22;7479;47.042;15.160;2023-09-08T11:35:42;29.90;80.60
14775;DHT22;7479;47.042;15.160;2023-09-08T11:40:37;30.20;76.90
14775;DHT22;7479;47.042;15.160;2023-09-08T11:45:34;30.20;78.40
14775;DHT22;7479;47.042;15.160;2023-09-08T11:50:29;30.20;75.90
14775;DHT22;7479;47.042;15.160;2023-09-08T11:55:25;30.40;76.40
14775;DHT22;7479;47.042;15.160;2023-09-08T12:00:21;30.90;74.70
14775;DHT22;7479;47.042;15.160;2023-09-08T12:05:21;31.10;75.00
14775;DHT22;7479;47.042;15.160;2023-09-08T12:10:15;31.10;71.00
14775;DHT22;7479;47.042;15.160;2023-09-08T12:15:10;31.10;72.70
14775;DHT22;7479;47.042;15.160;2023-09-08T12:20:14;31.50;68.20
14775;DHT22;7479;47.042;15.160;2023-09-08T12:25:08;31.50;69.10
14775;DHT22;7479;47.042;15.160;2023-09-08T12:30:02;31.90;69.80
14775;DHT22;7479;47.042;15.160;2023-09-08T12:34:58;31.80;68.20
14775;DHT22;7479;47.042;15.160;2023-09-08T12:39:55;31.90;65.80
14775;DHT22;7479;47.042;15.160;2023-09-08T12:44:49;31.90;66.90
14775;DHT22;7479;47.042;15.160;2023-09-08T12:49:42;31.80;67.00
14775;DHT22;7479;47.042;15.160;2023-09-08T12:54:36;31.90;66.70
14775;DHT22;7479;47.042;15.160;2023-09-08T12:59:31;31.80;67.00
14775;DHT22;7479;47.042;15.160;2023-09-08T13:04:25;31.90;63.20
14775;DHT22;7479;47.042;15.160;2023-09-08T13:09:18;32.30;62.70
14775;DHT22;7479;47.042;15.160;2023-09-08T13:14:12;32.30;63.40
14775;DHT22;7479;47.042;15.160;2023-09-08T13:19:07;32.60;62.00
14775;DHT22;7479;47.042;15.160;2023-09-08T13:24:06;32.70;60.80
14775;DHT22;7479;47.042;15.160;2023-09-08T13:29:00;32.30;61.90
14775;DHT22;7479;47.042;15.160;2023-09-08T13:33:54;32.30;62.90
14775;DHT22;7479;47.042;15.160;2023-09-08T13:38:48;32.70;62.80
14775;DHT22;7479;47.042;15.160;2023-09-08T13:43:42;32.90;61.70
14775;DHT22;7479;47.042;15.160;2023-09-08T13:48:38;32.90;61.10
14775;DHT22;7479;47.042;15.160;2023-09-08T13:53:33;33.20;59.80
14775;DHT22;7479;47.042;15.160;2023-09-08T13:58:39;33.20;59.60
14775;DHT22;7479;47.042;15.160;2023-09-08T14:03:39;33.10;61.30
14775;DHT22;7479;47.042;15.160;2023-09-08T14:08:53;33.10;61.70
14775;DHT22;7479;47.042;15.160;2023-09-08T14:13:51;33.20;60.30
14775;DHT22;7479;47.042;15.160;2023-09-08T14:18:45;33.00;58.80
14775;DHT22;7479;47.042;15.160;2023-09-08T14:23:38;33.10;60.30
14775;DHT22;7479;47.042;15.160;2023-09-08T14:28:32;33.40;59.50
14775;DHT22;7479;47.042;15.160;2023-09-08T14:33:27;33.30;59.70
14775;DHT22;7479;47.042;15.160;2023-09-08T14:38:21;33.30;59.20
14775;DHT22;7479;47.042;15.160;2023-09-08T14:43:15;33.40;59.80
14775;DHT22;7479;47.042;15.160;2023-09-08T14:48:08;33.50;59.00
14775;DHT22;7479;47.042;15.160;2023-09-08T14:53:03;34.20;58.30
14775;DHT22;7479;47.042;15.160;2023-09-08T14:57:58;35.50;56.80
14775;DHT22;7479;47.042;15.160;2023-09-08T15:02:52;37.80;54.20
14775;DHT22;7479;47.042;15.160;2023-09-08T15:07:45;39.70;50.40
14775;DHT22;7479;47.042;15.160;2023-09-08T15:12:40;40.50;48.20
14775;DHT22;7479;47.042;15.160;2023-09-08T15:17:34;41.00;46.50
14775;DHT22;7479;47.042;15.160;2023-09-08T15:22:27;41.80;45.40
14775;DHT22;7479;47.042;15.160;2023-09-08T15:27:21;42.20;44.20
14775;DHT22;7479;47.042;15.160;2023-09-08T15:32:16;42.50;43.90
14775;DHT22;7479;47.042;15.160;2023-09-08T15:37:09;42.20;43.00
14775;DHT22;7479;47.042;15.160;2023-09-08T15:42:03;42.20;43.10
14775;DHT22;7479;47.042;15.160;2023-09-08T15:46:57;42.20;42.40
14775;DHT22;7479;47.042;15.160;2023-09-08T15:51:52;41.50;42.00
14775;DHT22;7479;47.042;15.160;2023-09-08T15:57:05;40.90;42.30
14775;DHT22;7479;47.042;15.160;2023-09-08T16:02:00;40.90;42.40
14775;DHT22;7479;47.042;15.160;2023-09-08T16:06:55;40.70;42.20
14775;DHT22;7479;47.042;15.160;2023-09-08T16:11:49;39.90;43.70
14775;DHT22;7479;47.042;15.160;2023-09-08T16:16:42;39.50;44.00
14775;DHT22;7479;47.042;15.160;2023-09-08T16:21:36;38.80;45.30
14775;DHT22;7479;47.042;15.160;2023-09-08T16:26:31;34.80;49.40
14775;DHT22;7479;47.042;15.160;2023-09-08T16:31:24;31.60;55.60
14775;DHT22;7479;47.042;15.160;2023-09-08T16:36:18;29.80;60.10
14775;DHT22;7479;47.042;15.160;2023-09-08T16:41:11;28.90;63.80
14775;DHT22;7479;47.042;15.160;2023-09-08T16:46:07;28.30;66.30
14775;DHT22;7479;47.042;15.160;2023-09-08T16:51:00;27.70;70.30
14775;DHT22;7479;47.042;15.160;2023-09-08T16:55:55;26.90;75.00
14775;DHT22;7479;47.042;15.160;2023-09-08T17:00:48;26.30;78.00
14775;DHT22;7479;47.042;15.160;2023-09-08T17:05:44;25.90;80.60
14775;DHT22;7479;47.042;15.160;2023-09-08T17:10:37;25.50;84.40
14775;DHT22;7479;47.042;15.160;2023-09-08T17:15:31;25.10;87.40
14775;DHT22;7479;47.042;15.160;2023-09-08T17:20:24;24.80;89.10
14775;DHT22;7479;47.042;15.160;2023-09-08T17:25:21;24.60;89.60
14775;DHT22;7479;47.042;15.160;2023-09-08T17:30:15;24.40;90.20
14775;DHT22;7479;47.042;15.160;2023-09-08T17:35:09;24.20;90.40
14775;DHT22;7479;47.042;15.160;2023-09-08T17:40:02;23.90;91.60
14775;DHT22;7479;47.042;15.160;2023-09-08T17:44:58;23.70;92.50
14775;DHT22;7479;47.042;15.160;2023-09-08T17:49:52;23.30;94.50
14775;DHT22;7479;47.042;15.160;2023-09-08T17:54:45;23.10;95.30
14775;DHT22;7479;47.042;15.160;2023-09-08T17:59:39;22.90;96.40
14775;DHT22;7479;47.042;15.160;2023-09-08T18:04:34;22.60;97.70
14775;DHT22;7479;47.042;15.160;2023-09-08T18:09:29;22.20;99.40
14775;DHT22;7479;47.042;15.160;2023-09-08T18:14:23;22.00;99.90
14775;DHT22;7479;47.042;15.160;2023-09-08T18:19:16;22.00;99.90
14775;DHT22;7479;47.042;15.160;2023-09-08T18:24:11;21.90;99.90
14775;DHT22;7479;47.042;15.160;2023-09-08T18:29:05;21.70;99.90
14775;DHT22;7479;47.042;15.160;2023-09-08T18:33:59;21.70;99.90
14775;DHT22;7479;47.042;15.160;2023-09-08T18:38:53;21.50;99.90
14775;DHT22;7479;47.042;15.160;2023-09-08T18:43:48;21.30;99.90
14775;DHT22;7479;47.042;15.160;2023-09-08T18:48:41;21.20;99.90
14775;DHT22;7479;47.042;15.160;2023-09-08T18:53:35;21.00;99.90
14775;DHT22;7479;47.042;15.160;2023-09-08T18:58:30;20.90;99.90
14775;DHT22;7479;47.042;15.160;2023-09-08T19:03:26;20.70;99.90
14775;DHT22;7479;47.042;15.160;2023-09-08T19:08:20;20.50;99.90
14775;DHT22;7479;47.042;15.160;2023-09-08T19:13:13;20.40;99.90
14775;DHT22;7479;47.042;15.160;2023-09-08T19:18:07;20.40;99.90
14775;DHT22;7479;47.042;15.160;2023-09-08T19:23:02;20.20;99.90
14775;DHT22;7479;47.042;15.160;2023-09-08T19:27:56;19.90;99.90
14775;DHT22;7479;47.042;15.160;2023-09-08T19:32:49;19.60;99.90
